SKCGSKBQ

Guest
Details From SKCG - RAFAEL NUNEZ
To SKBQ - Ernesto Cortissoz
Flight Number -
Tags generated
Created
Modified
Stats Distance 51 nm / 95 km
Max Altitude 1,500 ft / 457 m
Waypoints 3
Social Downloads 6
Likes 0
Share VATSIM

Download

Looking for another format? Having issues loading an existing format? Contact us
Advertisement - Login to hide

Notes

Basic altitude profile: - Ascent Rate: 2500ft/min - Ascent Speed: 250kts - Cruise Altitude: 35000ft - Cruise Speed: 420kts - Descent Rate: 1500ft/min - Descent Speed: 250kts Options: - Use NATs: yes - Use PACOTS: yes - Use low airways: yes - Use high airways: yes

Route

SKCG BAQ SKBQ

ID Type Via Altitude Latitude Longitude Leg Dist Tot Dist Heading (true) Name
O SKCG APT - 0 ft / 0 m 10.44238˚ -75.51296˚ - 0 nm - RAFAEL NUNEZ
BAQ VOR - 1,500 ft / 457 m 10.79667˚ -74.86028˚ 44 nm 44 nm 61° / 61° BARRANQUILLA VOR-DME
O SKBQ APT - 0 ft / 0 m 10.88959˚ -74.78082˚ 7 nm 51 nm 40° / 40° Ernesto Cortissoz

Altitude Profile

Advertisement - Login to hide

SKCG

Details ICAO SKCG (CTG)
Name RAFAEL NUNEZ
Region Colombia
Timezone America/Bogota (UTC-5.0)
Stats Elevation 4 ft / 1 m (AMSL)
Location 10.442379° -75.512961°
Runways 1
Magnetic Variation 7.204° W

METAR

SKCG 130600Z 36007KT 9999 FEW017 27/23 A2989

Decode

TAF

TAF SKCG 130500Z 130606 06006KT CAVOK BECMG 1310/1312 34010KT 9999 FEW020 TX32/1318Z TN25/1311Z

Decode

Departure Runways

ID Width Length Bearing (true) Bearing (mag) Surface Threshold Offset Overrun Length
01 148 ft / 45 m 8,584 ft / 2,616 m 2.31° 9.51° Asphalt 0 ft / 0 m 180 ft / 55 m
19 148 ft / 45 m 8,584 ft / 2,616 m 182.31° 189.51° Asphalt 190 ft / 58 m 0 ft / 0 m

SKBQ

Details ICAO SKBQ (BAQ)
Name Ernesto Cortissoz
Region Colombia
Timezone America/Bogota (UTC-5.0)
Stats Elevation 98 ft / 30 m (AMSL)
Location 10.889589° -74.780820°
Runways 1
Magnetic Variation 7.727° W

METAR

SKBQ 130600Z VRB02KT 9999 SCT015 BKN200 25/24 A2990

Decode

TAF

Not found

Destination Runways

ID Width Length Bearing (true) Bearing (mag) Surface Threshold Offset Overrun Length
05 148 ft / 45 m 9,863 ft / 3,006 m 40.09° 47.82° Concrete 0 ft / 0 m 105 ft / 32 m
23 148 ft / 45 m 9,863 ft / 3,006 m 220.09° 227.82° Concrete 0 ft / 0 m 0 ft / 0 m

Approach Navaids

Runway Type Ident Frequency Range Bearing (true) Bearing (mag) Slope Elevation
05 Localiser IBAQ 109.90 MHz 18 nm / 33 km 39.98° 47.71° - 98 ft / 30 m (AMSL)
05 Glidescope IBAQ 109.90 MHz 10 nm / 19 km 40.09° 47.82° 3.00° 98 ft / 30 m (AMSL)